sensor_id;sensor_type;location;lat;lon;timestamp;pressure;altitude;pressure_sealevel;temperature;humidity
77086;BME280;66014;53.134;18.006;2024-03-17T00:01:57;101202.91;;;5.23;68.25
77086;BME280;66014;53.134;18.006;2024-03-17T00:04:24;101203.42;;;5.21;68.53
77086;BME280;66014;53.134;18.006;2024-03-17T00:06:50;101201.77;;;5.20;68.40
77086;BME280;66014;53.134;18.006;2024-03-17T00:09:17;101202.36;;;5.19;68.03
77086;BME280;66014;53.134;18.006;2024-03-17T00:11:44;101202.20;;;5.19;67.96
77086;BME280;66014;53.134;18.006;2024-03-17T00:14:11;101206.39;;;5.20;67.69
77086;BME280;66014;53.134;18.006;2024-03-17T00:16:38;101198.85;;;5.19;67.76
77086;BME280;66014;53.134;18.006;2024-03-17T00:19:05;101195.96;;;5.18;67.57
77086;BME280;66014;53.134;18.006;2024-03-17T00:21:32;101197.52;;;5.16;67.81
77086;BME280;66014;53.134;18.006;2024-03-17T00:23:58;101196.86;;;5.14;67.81
77086;BME280;66014;53.134;18.006;2024-03-17T00:26:25;101193.19;;;5.14;68.05
77086;BME280;66014;53.134;18.006;2024-03-17T00:32:51;101189.11;;;5.20;67.77
77086;BME280;66014;53.134;18.006;2024-03-17T00:35:18;101182.02;;;5.23;67.00
77086;BME280;66014;53.134;18.006;2024-03-17T00:37:48;101178.34;;;5.26;67.28
77086;BME280;66014;53.134;18.006;2024-03-17T00:40:17;101178.80;;;5.31;66.72
77086;BME280;66014;53.134;18.006;2024-03-17T00:42:43;101175.48;;;5.37;66.42
77086;BME280;66014;53.134;18.006;2024-03-17T00:45:15;101173.04;;;5.43;65.63
77086;BME280;66014;53.134;18.006;2024-03-17T00:47:44;101171.04;;;5.48;65.77
77086;BME280;66014;53.134;18.006;2024-03-17T00:50:10;101173.61;;;5.52;65.63
77086;BME280;66014;53.134;18.006;2024-03-17T00:52:37;101174.29;;;5.57;65.13
77086;BME280;66014;53.134;18.006;2024-03-17T00:55:04;101170.13;;;5.62;65.01
77086;BME280;66014;53.134;18.006;2024-03-17T00:57:31;101170.17;;;5.65;64.80
77086;BME280;66014;53.134;18.006;2024-03-17T00:59:57;101169.03;;;5.68;64.26
77086;BME280;66014;53.134;18.006;2024-03-17T01:02:24;101164.66;;;5.70;63.65
77086;BME280;66014;53.134;18.006;2024-03-17T01:04:51;101162.63;;;5.73;64.47
77086;BME280;66014;53.134;18.006;2024-03-17T01:07:17;101161.81;;;5.76;64.37
77086;BME280;66014;53.134;18.006;2024-03-17T01:09:47;101160.83;;;5.79;64.21
77086;BME280;66014;53.134;18.006;2024-03-17T01:12:15;101159.78;;;5.82;64.16
77086;BME280;66014;53.134;18.006;2024-03-17T01:14:41;101157.09;;;5.84;64.46
77086;BME280;66014;53.134;18.006;2024-03-17T01:17:08;101154.41;;;5.84;64.02
77086;BME280;66014;53.134;18.006;2024-03-17T01:19:37;101161.23;;;5.85;64.40
77086;BME280;66014;53.134;18.006;2024-03-17T01:22:05;101159.56;;;5.86;64.67
77086;BME280;66014;53.134;18.006;2024-03-17T01:24:31;101162.55;;;5.86;64.55
77086;BME280;66014;53.134;18.006;2024-03-17T01:26:58;101159.55;;;5.86;64.97
77086;BME280;66014;53.134;18.006;2024-03-17T01:29:26;101162.85;;;5.89;65.35
77086;BME280;66014;53.134;18.006;2024-03-17T01:31:59;101158.96;;;5.89;65.53
77086;BME280;66014;53.134;18.006;2024-03-17T01:34:27;101159.72;;;5.90;65.91
77086;BME280;66014;53.134;18.006;2024-03-17T01:36:53;101160.98;;;5.90;66.15
77086;BME280;66014;53.134;18.006;2024-03-17T01:39:19;101153.98;;;5.87;66.65
77086;BME280;66014;53.134;18.006;2024-03-17T01:41:47;101148.94;;;5.83;67.23
77086;BME280;66014;53.134;18.006;2024-03-17T01:44:27;101142.98;;;5.78;67.72
77086;BME280;66014;53.134;18.006;2024-03-17T01:46:57;101139.25;;;5.74;68.15
77086;BME280;66014;53.134;18.006;2024-03-17T01:49:25;101140.26;;;5.73;68.34
77086;BME280;66014;53.134;18.006;2024-03-17T01:51:53;101141.36;;;5.73;68.48
77086;BME280;66014;53.134;18.006;2024-03-17T01:54:20;101148.92;;;5.73;68.52
77086;BME280;66014;53.134;18.006;2024-03-17T01:56:47;101147.88;;;5.73;68.64
77086;BME280;66014;53.134;18.006;2024-03-17T01:59:18;101145.91;;;5.73;68.52
77086;BME280;66014;53.134;18.006;2024-03-17T02:01:45;101145.76;;;5.73;68.54
77086;BME280;66014;53.134;18.006;2024-03-17T02:04:12;101142.02;;;5.73;68.33
77086;BME280;66014;53.134;18.006;2024-03-17T02:06:40;101142.98;;;5.74;68.09
77086;BME280;66014;53.134;18.006;2024-03-17T02:09:07;101141.33;;;5.75;67.78
77086;BME280;66014;53.134;18.006;2024-03-17T02:11:35;101138.68;;;5.75;67.71
77086;BME280;66014;53.134;18.006;2024-03-17T02:14:02;101141.83;;;5.77;67.40
77086;BME280;66014;53.134;18.006;2024-03-17T02:16:28;101138.93;;;5.78;67.24
77086;BME280;66014;53.134;18.006;2024-03-17T02:18:56;101140.04;;;5.80;66.43
77086;BME280;66014;53.134;18.006;2024-03-17T02:21:24;101138.42;;;5.80;66.15
77086;BME280;66014;53.134;18.006;2024-03-17T02:23:54;101135.52;;;5.81;66.42
77086;BME280;66014;53.134;18.006;2024-03-17T02:26:24;101141.14;;;5.83;65.99
77086;BME280;66014;53.134;18.006;2024-03-17T02:28:54;101143.80;;;5.85;65.11
77086;BME280;66014;53.134;18.006;2024-03-17T02:31:22;101139.54;;;5.85;64.77
77086;BME280;66014;53.134;18.006;2024-03-17T02:33:48;101139.44;;;5.87;64.97
77086;BME280;66014;53.134;18.006;2024-03-17T02:36:26;101134.10;;;5.87;64.51
77086;BME280;66014;53.134;18.006;2024-03-17T02:38:56;101136.48;;;5.88;64.56
77086;BME280;66014;53.134;18.006;2024-03-17T02:41:44;101140.39;;;5.90;64.60
77086;BME280;66014;53.134;18.006;2024-03-17T02:44:12;101136.46;;;5.90;64.47
77086;BME280;66014;53.134;18.006;2024-03-17T02:46:38;101133.52;;;5.92;64.35
77086;BME280;66014;53.134;18.006;2024-03-17T02:49:04;101137.72;;;5.92;64.31
77086;BME280;66014;53.134;18.006;2024-03-17T02:51:31;101137.73;;;5.92;64.31
77086;BME280;66014;53.134;18.006;2024-03-17T02:54:00;101133.84;;;5.92;64.48
77086;BME280;66014;53.134;18.006;2024-03-17T02:56:31;101116.40;;;5.90;63.94
77086;BME280;66014;53.134;18.006;2024-03-17T02:58:58;101105.55;;;5.85;64.11
77086;BME280;66014;53.134;18.006;2024-03-17T03:01:24;101100.69;;;5.80;64.31
77086;BME280;66014;53.134;18.006;2024-03-17T03:03:51;101102.20;;;5.75;64.51
77086;BME280;66014;53.134;18.006;2024-03-17T03:06:19;101115.44;;;5.73;64.70
77086;BME280;66014;53.134;18.006;2024-03-17T03:08:45;101122.23;;;5.72;64.50
77086;BME280;66014;53.134;18.006;2024-03-17T03:11:16;101126.13;;;5.72;64.45
77086;BME280;66014;53.134;18.006;2024-03-17T03:13:43;101133.94;;;5.73;64.76
77086;BME280;66014;53.134;18.006;2024-03-17T03:16:12;101133.59;;;5.75;64.64
77086;BME280;66014;53.134;18.006;2024-03-17T03:18:41;101132.98;;;5.76;64.42
77086;BME280;66014;53.134;18.006;2024-03-17T03:21:11;101131.20;;;5.76;64.43
77086;BME280;66014;53.134;18.006;2024-03-17T03:23:44;101127.36;;;5.75;64.35
77086;BME280;66014;53.134;18.006;2024-03-17T03:26:11;101129.65;;;5.76;64.41
77086;BME280;66014;53.134;18.006;2024-03-17T03:28:38;101127.67;;;5.76;64.67
77086;BME280;66014;53.134;18.006;2024-03-17T03:31:04;101125.55;;;5.76;64.44
77086;BME280;66014;53.134;18.006;2024-03-17T03:33:32;101122.59;;;5.76;64.43
77086;BME280;66014;53.134;18.006;2024-03-17T03:36:10;101130.35;;;5.76;64.44
77086;BME280;66014;53.134;18.006;2024-03-17T03:38:39;101124.44;;;5.75;64.64
77086;BME280;66014;53.134;18.006;2024-03-17T03:41:07;101126.48;;;5.76;64.47
77086;BME280;66014;53.134;18.006;2024-03-17T03:43:34;101121.46;;;5.77;64.86
77086;BME280;66014;53.134;18.006;2024-03-17T03:46:02;101118.41;;;5.77;64.69
77086;BME280;66014;53.134;18.006;2024-03-17T03:48:30;101120.42;;;5.79;64.69
77086;BME280;66014;53.134;18.006;2024-03-17T03:50:56;101112.96;;;5.77;64.32
77086;BME280;66014;53.134;18.006;2024-03-17T03:53:23;101116.75;;;5.76;64.58
77086;BME280;66014;53.134;18.006;2024-03-17T03:55:50;101117.25;;;5.76;64.55
77086;BME280;66014;53.134;18.006;2024-03-17T03:58:16;101118.69;;;5.76;64.55
77086;BME280;66014;53.134;18.006;2024-03-17T04:00:43;101121.86;;;5.76;64.91
77086;BME280;66014;53.134;18.006;2024-03-17T04:03:09;101124.20;;;5.75;64.82
77086;BME280;66014;53.134;18.006;2024-03-17T04:05:36;101131.54;;;5.76;64.99
77086;BME280;66014;53.134;18.006;2024-03-17T04:08:02;101135.31;;;5.75;65.07
77086;BME280;66014;53.134;18.006;2024-03-17T04:10:29;101150.81;;;5.73;65.76
77086;BME280;66014;53.134;18.006;2024-03-17T04:12:56;101166.94;;;5.70;67.16
77086;BME280;66014;53.134;18.006;2024-03-17T04:15:37;101182.83;;;5.64;69.92
77086;BME280;66014;53.134;18.006;2024-03-17T04:18:06;101183.65;;;5.48;71.64
77086;BME280;66014;53.134;18.006;2024-03-17T04:20:33;101181.64;;;5.35;72.04
77086;BME280;66014;53.134;18.006;2024-03-17T04:23:03;101185.80;;;5.24;73.23
77086;BME280;66014;53.134;18.006;2024-03-17T04:25:36;101186.79;;;5.12;73.53
77086;BME280;66014;53.134;18.006;2024-03-17T04:28:04;101190.52;;;5.04;73.74
77086;BME280;66014;53.134;18.006;2024-03-17T04:30:33;101192.58;;;4.98;74.02
77086;BME280;66014;53.134;18.006;2024-03-17T04:32:59;101190.38;;;4.93;74.00
77086;BME280;66014;53.134;18.006;2024-03-17T04:35:26;101183.73;;;4.91;74.36
77086;BME280;66014;53.134;18.006;2024-03-17T04:37:52;101182.84;;;4.89;74.39
77086;BME280;66014;53.134;18.006;2024-03-17T04:40:21;101185.09;;;4.87;74.17
77086;BME280;66014;53.134;18.006;2024-03-17T04:42:49;101183.18;;;4.86;74.04
77086;BME280;66014;53.134;18.006;2024-03-17T04:45:15;101188.62;;;4.87;74.08
77086;BME280;66014;53.134;18.006;2024-03-17T04:47:42;101185.04;;;4.87;73.68
77086;BME280;66014;53.134;18.006;2024-03-17T04:50:09;101198.02;;;4.90;73.70
77086;BME280;66014;53.134;18.006;2024-03-17T04:52:35;101196.20;;;4.93;73.47
77086;BME280;66014;53.134;18.006;2024-03-17T04:55:02;101193.86;;;4.95;73.67
77086;BME280;66014;53.134;18.006;2024-03-17T04:57:30;101198.08;;;4.97;73.45
77086;BME280;66014;53.134;18.006;2024-03-17T04:59:56;101196.96;;;5.00;73.34
77086;BME280;66014;53.134;18.006;2024-03-17T05:02:26;101200.34;;;5.02;73.35
77086;BME280;66014;53.134;18.006;2024-03-17T05:04:55;101205.48;;;5.03;73.38
77086;BME280;66014;53.134;18.006;2024-03-17T05:07:23;101206.44;;;5.03;73.22
77086;BME280;66014;53.134;18.006;2024-03-17T05:10:09;101215.45;;;5.02;73.32
77086;BME280;66014;53.134;18.006;2024-03-17T05:12:52;101223.67;;;5.01;73.25
77086;BME280;66014;53.134;18.006;2024-03-17T05:15:22;101230.17;;;5.01;73.08
77086;BME280;66014;53.134;18.006;2024-03-17T05:17:49;101230.98;;;4.99;72.59
77086;BME280;66014;53.134;18.006;2024-03-17T05:20:15;101231.75;;;5.01;72.55
77086;BME280;66014;53.134;18.006;2024-03-17T05:22:43;101236.20;;;5.02;72.16
77086;BME280;66014;53.134;18.006;2024-03-17T05:25:22;101238.89;;;5.04;71.96
77086;BME280;66014;53.134;18.006;2024-03-17T05:27:52;101244.28;;;5.04;71.58
77086;BME280;66014;53.134;18.006;2024-03-17T05:30:19;101255.35;;;5.04;71.07
77086;BME280;66014;53.134;18.006;2024-03-17T05:32:46;101257.26;;;5.05;70.70
77086;BME280;66014;53.134;18.006;2024-03-17T05:35:12;101261.24;;;5.05;70.58
77086;BME280;66014;53.134;18.006;2024-03-17T05:37:40;101263.59;;;5.07;70.58
77086;BME280;66014;53.134;18.006;2024-03-17T05:40:15;101269.04;;;5.09;70.46
77086;BME280;66014;53.134;18.006;2024-03-17T05:46:38;101277.77;;;5.08;70.06
77086;BME280;66014;53.134;18.006;2024-03-17T05:52:56;101282.00;;;5.10;69.57
77086;BME280;66014;53.134;18.006;2024-03-17T05:55:26;101279.01;;;5.10;69.56
77086;BME280;66014;53.134;18.006;2024-03-17T05:58:02;101277.67;;;5.13;69.54
77086;BME280;66014;53.134;18.006;2024-03-17T06:00:31;101273.86;;;5.16;68.96
77086;BME280;66014;53.134;18.006;2024-03-17T06:02:57;101275.73;;;5.21;68.48
77086;BME280;66014;53.134;18.006;2024-03-17T06:05:27;101274.65;;;5.26;67.62
77086;BME280;66014;53.134;18.006;2024-03-17T06:07:54;101274.59;;;5.28;67.08
77086;BME280;66014;53.134;18.006;2024-03-17T06:10:21;101278.23;;;5.31;66.84
77086;BME280;66014;53.134;18.006;2024-03-17T06:12:50;101278.84;;;5.32;66.78
77086;BME280;66014;53.134;18.006;2024-03-17T06:15:19;101281.23;;;5.35;66.57
77086;BME280;66014;53.134;18.006;2024-03-17T06:17:47;101276.94;;;5.36;65.95
77086;BME280;66014;53.134;18.006;2024-03-17T06:20:20;101280.14;;;5.36;66.27
77086;BME280;66014;53.134;18.006;2024-03-17T06:22:47;101275.36;;;5.38;66.18
77086;BME280;66014;53.134;18.006;2024-03-17T06:25:15;101276.66;;;5.39;65.68
77086;BME280;66014;53.134;18.006;2024-03-17T06:27:50;101279.19;;;5.38;65.63
77086;BME280;66014;53.134;18.006;2024-03-17T06:30:57;101278.45;;;5.41;65.69
77086;BME280;66014;53.134;18.006;2024-03-17T06:33:39;101282.86;;;5.41;66.08
77086;BME280;66014;53.134;18.006;2024-03-17T06:36:22;101288.54;;;5.44;65.93
77086;BME280;66014;53.134;18.006;2024-03-17T06:38:53;101291.77;;;5.46;65.63
77086;BME280;66014;53.134;18.006;2024-03-17T06:41:24;101292.73;;;5.43;65.49
77086;BME280;66014;53.134;18.006;2024-03-17T06:43:53;101296.15;;;5.40;65.79
77086;BME280;66014;53.134;18.006;2024-03-17T06:53:09;101303.36;;;5.38;66.72
77086;BME280;66014;53.134;18.006;2024-03-17T06:56:05;101307.95;;;5.38;67.11
77086;BME280;66014;53.134;18.006;2024-03-17T06:58:32;101310.45;;;5.41;67.29
77086;BME280;66014;53.134;18.006;2024-03-17T07:01:02;101312.55;;;5.46;67.33
77086;BME280;66014;53.134;18.006;2024-03-17T07:03:47;101313.92;;;5.48;67.40
77086;BME280;66014;53.134;18.006;2024-03-17T07:06:48;101315.55;;;5.52;67.23
77086;BME280;66014;53.134;18.006;2024-03-17T07:09:16;101317.17;;;5.51;67.12
77086;BME280;66014;53.134;18.006;2024-03-17T07:15:37;101324.52;;;5.58;67.06
77086;BME280;66014;53.134;18.006;2024-03-17T07:21:29;101329.80;;;5.81;66.64
77086;BME280;66014;53.134;18.006;2024-03-17T07:24:22;101331.97;;;5.80;67.06
77086;BME280;66014;53.134;18.006;2024-03-17T07:31:14;101337.36;;;5.87;67.35
77086;BME280;66014;53.134;18.006;2024-03-17T07:34:08;101339.98;;;5.93;67.82
77086;BME280;66014;53.134;18.006;2024-03-17T07:36:35;101347.09;;;5.85;68.36
77086;BME280;66014;53.134;18.006;2024-03-17T07:39:10;101358.39;;;5.77;69.33
77086;BME280;66014;53.134;18.006;2024-03-17T07:41:45;101362.25;;;5.78;69.93
77086;BME280;66014;53.134;18.006;2024-03-17T07:44:12;101362.43;;;5.74;70.19
77086;BME280;66014;53.134;18.006;2024-03-17T07:46:39;101361.52;;;5.74;70.78
77086;BME280;66014;53.134;18.006;2024-03-17T07:49:12;101360.88;;;5.82;71.10
77086;BME280;66014;53.134;18.006;2024-03-17T07:51:39;101358.81;;;5.95;70.89
77086;BME280;66014;53.134;18.006;2024-03-17T07:54:07;101364.45;;;6.16;70.43
77086;BME280;66014;53.134;18.006;2024-03-17T07:56:54;101359.76;;;6.29;70.01
77086;BME280;66014;53.134;18.006;2024-03-17T07:59:34;101362.60;;;6.35;69.73
77086;BME280;66014;53.134;18.006;2024-03-17T08:02:24;101366.75;;;6.28;69.70
77086;BME280;66014;53.134;18.006;2024-03-17T08:04:51;101367.14;;;6.17;69.83
77086;BME280;66014;53.134;18.006;2024-03-17T08:07:17;101367.98;;;6.10;70.14
77086;BME280;66014;53.134;18.006;2024-03-17T08:09:45;101364.05;;;6.06;70.20
77086;BME280;66014;53.134;18.006;2024-03-17T08:12:14;101364.14;;;6.05;70.26
77086;BME280;66014;53.134;18.006;2024-03-17T08:14:41;101363.46;;;6.05;70.34
77086;BME280;66014;53.134;18.006;2024-03-17T08:17:07;101361.20;;;6.06;70.56
77086;BME280;66014;53.134;18.006;2024-03-17T08:19:33;101364.14;;;6.01;70.71
77086;BME280;66014;53.134;18.006;2024-03-17T08:22:00;101365.00;;;5.97;71.13
77086;BME280;66014;53.134;18.006;2024-03-17T08:24:28;101370.22;;;5.92;70.99
77086;BME280;66014;53.134;18.006;2024-03-17T08:26:54;101379.79;;;5.87;71.29
77086;BME280;66014;53.134;18.006;2024-03-17T08:29:21;101382.14;;;5.89;71.48
77086;BME280;66014;53.134;18.006;2024-03-17T08:31:47;101390.85;;;5.92;71.72
77086;BME280;66014;53.134;18.006;2024-03-17T08:34:15;101398.36;;;5.90;71.48
77086;BME280;66014;53.134;18.006;2024-03-17T08:36:42;101402.40;;;5.82;71.21
77086;BME280;66014;53.134;18.006;2024-03-17T08:39:08;101408.46;;;5.62;71.13
77086;BME280;66014;53.134;18.006;2024-03-17T08:41:37;101414.40;;;5.38;71.47
77086;BME280;66014;53.134;18.006;2024-03-17T08:44:10;101419.82;;;5.17;72.22
77086;BME280;66014;53.134;18.006;2024-03-17T08:46:36;101413.92;;;5.01;72.99
77086;BME280;66014;53.134;18.006;2024-03-17T08:49:03;101413.94;;;4.90;73.54
77086;BME280;66014;53.134;18.006;2024-03-17T08:51:31;101409.56;;;4.90;73.96
77086;BME280;66014;53.134;18.006;2024-03-17T08:53:58;101408.67;;;5.03;74.16
77086;BME280;66014;53.134;18.006;2024-03-17T08:56:26;101405.76;;;5.30;73.94
77086;BME280;66014;53.134;18.006;2024-03-17T08:58:56;101409.09;;;5.68;73.39
77086;BME280;66014;53.134;18.006;2024-03-17T09:01:23;101415.11;;;6.04;72.33
77086;BME280;66014;53.134;18.006;2024-03-17T09:03:50;101412.58;;;6.20;71.37
77086;BME280;66014;53.134;18.006;2024-03-17T09:06:20;101414.17;;;6.15;70.33
77086;BME280;66014;53.134;18.006;2024-03-17T09:09:05;101411.61;;;6.20;69.94
77086;BME280;66014;53.134;18.006;2024-03-17T09:11:32;101413.92;;;6.36;69.66
77086;BME280;66014;53.134;18.006;2024-03-17T09:13:59;101420.55;;;6.61;69.74
77086;BME280;66014;53.134;18.006;2024-03-17T09:16:26;101414.34;;;6.89;68.57
77086;BME280;66014;53.134;18.006;2024-03-17T09:18:55;101418.48;;;6.94;68.10
77086;BME280;66014;53.134;18.006;2024-03-17T09:21:21;101418.48;;;7.04;67.35
77086;BME280;66014;53.134;18.006;2024-03-17T09:24:25;101419.88;;;7.25;66.98
77086;BME280;66014;53.134;18.006;2024-03-17T09:26:54;101427.62;;;7.57;66.74
77086;BME280;66014;53.134;18.006;2024-03-17T09:29:20;101425.33;;;7.83;64.91
77086;BME280;66014;53.134;18.006;2024-03-17T09:31:55;101423.81;;;8.14;63.63
77086;BME280;66014;53.134;18.006;2024-03-17T09:35:03;101423.05;;;8.53;62.38
77086;BME280;66014;53.134;18.006;2024-03-17T09:37:37;101419.27;;;9.23;62.17
77086;BME280;66014;53.134;18.006;2024-03-17T09:40:15;101418.65;;;9.87;60.86
77086;BME280;66014;53.134;18.006;2024-03-17T09:42:42;101414.61;;;10.55;59.51
77086;BME280;66014;53.134;18.006;2024-03-17T09:45:10;101412.92;;;11.12;57.26
77086;BME280;66014;53.134;18.006;2024-03-17T09:47:47;101415.00;;;11.27;54.35
77086;BME280;66014;53.134;18.006;2024-03-17T09:50:14;101416.27;;;11.06;54.96
77086;BME280;66014;53.134;18.006;2024-03-17T09:52:46;101420.05;;;11.22;55.60
77086;BME280;66014;53.134;18.006;2024-03-17T09:55:18;101421.77;;;11.58;54.31
77086;BME280;66014;53.134;18.006;2024-03-17T09:57:45;101424.12;;;11.94;54.08
77086;BME280;66014;53.134;18.006;2024-03-17T10:00:14;101428.98;;;11.96;50.33
77086;BME280;66014;53.134;18.006;2024-03-17T10:02:43;101435.27;;;11.44;51.80
77086;BME280;66014;53.134;18.006;2024-03-17T10:05:25;101444.49;;;10.79;51.99
77086;BME280;66014;53.134;18.006;2024-03-17T10:07:52;101451.84;;;10.10;53.75
77086;BME280;66014;53.134;18.006;2024-03-17T10:10:20;101451.05;;;9.61;54.71
77086;BME280;66014;53.134;18.006;2024-03-17T10:12:50;101445.27;;;9.30;55.14
77086;BME280;66014;53.134;18.006;2024-03-17T10:15:19;101443.38;;;9.33;54.84
77086;BME280;66014;53.134;18.006;2024-03-17T10:17:46;101443.29;;;9.78;53.71
77086;BME280;66014;53.134;18.006;2024-03-17T10:20:17;101451.13;;;10.21;53.93
77086;BME280;66014;53.134;18.006;2024-03-17T10:23:13;101451.87;;;10.85;53.10
77086;BME280;66014;53.134;18.006;2024-03-17T10:25:41;101443.12;;;11.63;49.75
77086;BME280;66014;53.134;18.006;2024-03-17T10:28:12;101444.11;;;11.77;50.74
77086;BME280;66014;53.134;18.006;2024-03-17T10:30:42;101448.46;;;11.56;51.23
77086;BME280;66014;53.134;18.006;2024-03-17T10:33:26;101456.52;;;11.23;50.42
77086;BME280;66014;53.134;18.006;2024-03-17T10:36:00;101457.21;;;10.93;50.74
77086;BME280;66014;53.134;18.006;2024-03-17T10:38:28;101468.96;;;10.61;50.63
77086;BME280;66014;53.134;18.006;2024-03-17T10:40:56;101470.84;;;10.17;50.13
77086;BME280;66014;53.134;18.006;2024-03-17T10:43:23;101478.02;;;9.64;51.24
77086;BME280;66014;53.134;18.006;2024-03-17T10:45:56;101478.97;;;9.15;52.41
77086;BME280;66014;53.134;18.006;2024-03-17T10:48:31;101476.61;;;8.76;53.19
77086;BME280;66014;53.134;18.006;2024-03-17T10:51:17;101476.44;;;8.50;53.28
77086;BME280;66014;53.134;18.006;2024-03-17T10:53:48;101475.17;;;8.41;53.35
77086;BME280;66014;53.134;18.006;2024-03-17T10:56:19;101477.27;;;8.51;53.37
77086;BME280;66014;53.134;18.006;2024-03-17T10:58:55;101477.27;;;8.84;52.45
77086;BME280;66014;53.134;18.006;2024-03-17T11:01:26;101480.92;;;9.63;50.84
77086;BME280;66014;53.134;18.006;2024-03-17T11:03:52;101478.80;;;10.36;48.22
77086;BME280;66014;53.134;18.006;2024-03-17T11:06:25;101480.23;;;10.50;48.92
77086;BME280;66014;53.134;18.006;2024-03-17T11:09:13;101482.61;;;10.46;49.28
77086;BME280;66014;53.134;18.006;2024-03-17T11:11:47;101487.46;;;10.16;48.92
77086;BME280;66014;53.134;18.006;2024-03-17T11:14:18;101491.67;;;9.80;49.62
77086;BME280;66014;53.134;18.006;2024-03-17T11:16:46;101490.70;;;9.44;50.06
77086;BME280;66014;53.134;18.006;2024-03-17T11:19:17;101492.53;;;9.16;51.11
77086;BME280;66014;53.134;18.006;2024-03-17T11:21:43;101499.52;;;8.93;50.61
77086;BME280;66014;53.134;18.006;2024-03-17T11:24:20;101497.34;;;8.72;50.79
77086;BME280;66014;53.134;18.006;2024-03-17T11:26:47;101498.89;;;8.52;50.88
77086;BME280;66014;53.134;18.006;2024-03-17T11:29:29;101500.66;;;8.43;51.25
77086;BME280;66014;53.134;18.006;2024-03-17T11:32:00;101498.84;;;8.51;51.21
77086;BME280;66014;53.134;18.006;2024-03-17T11:34:37;101503.06;;;8.51;51.69
77086;BME280;66014;53.134;18.006;2024-03-17T11:37:42;101509.92;;;8.53;52.17
77086;BME280;66014;53.134;18.006;2024-03-17T11:40:24;101504.98;;;8.46;51.35
77086;BME280;66014;53.134;18.006;2024-03-17T11:43:04;101509.03;;;8.37;51.41
77086;BME280;66014;53.134;18.006;2024-03-17T11:45:35;101507.98;;;8.31;51.78
77086;BME280;66014;53.134;18.006;2024-03-17T11:48:06;101508.10;;;8.41;52.14
77086;BME280;66014;53.134;18.006;2024-03-17T11:50:39;101508.08;;;8.58;51.90
77086;BME280;66014;53.134;18.006;2024-03-17T11:53:08;101506.16;;;8.69;51.66
77086;BME280;66014;53.134;18.006;2024-03-17T11:55:37;101508.01;;;8.79;51.87
77086;BME280;66014;53.134;18.006;2024-03-17T11:58:03;101499.11;;;9.17;51.61
77086;BME280;66014;53.134;18.006;2024-03-17T12:00:30;101498.31;;;9.51;51.35
77086;BME280;66014;53.134;18.006;2024-03-17T12:02:57;101506.31;;;9.36;51.46
77086;BME280;66014;53.134;18.006;2024-03-17T12:05:25;101513.54;;;9.09;51.40
77086;BME280;66014;53.134;18.006;2024-03-17T12:07:53;101512.52;;;8.74;50.53
77086;BME280;66014;53.134;18.006;2024-03-17T12:10:21;101518.58;;;8.33;50.39
77086;BME280;66014;53.134;18.006;2024-03-17T12:12:47;101517.93;;;7.98;50.63
77086;BME280;66014;53.134;18.006;2024-03-17T12:15:18;101517.15;;;7.84;51.01
77086;BME280;66014;53.134;18.006;2024-03-17T12:17:46;101525.34;;;7.70;51.07
77086;BME280;66014;53.134;18.006;2024-03-17T12:20:20;101527.66;;;7.56;50.52
77086;BME280;66014;53.134;18.006;2024-03-17T12:22:54;101529.19;;;7.35;50.48
77086;BME280;66014;53.134;18.006;2024-03-17T12:25:22;101531.13;;;7.13;51.21
77086;BME280;66014;53.134;18.006;2024-03-17T12:27:51;101533.77;;;6.99;51.86
77086;BME280;66014;53.134;18.006;2024-03-17T12:30:18;101535.55;;;6.91;52.08
77086;BME280;66014;53.134;18.006;2024-03-17T12:32:45;101535.46;;;6.86;52.16
77086;BME280;66014;53.134;18.006;2024-03-17T12:35:16;101534.84;;;6.95;52.36
77086;BME280;66014;53.134;18.006;2024-03-17T12:37:46;101540.58;;;7.14;52.36
77086;BME280;66014;53.134;18.006;2024-03-17T12:40:20;101535.81;;;7.18;52.08
77086;BME280;66014;53.134;18.006;2024-03-17T12:42:50;101536.09;;;7.05;51.83
77086;BME280;66014;53.134;18.006;2024-03-17T12:45:23;101545.20;;;6.82;52.46
77086;BME280;66014;53.134;18.006;2024-03-17T12:47:51;101554.23;;;6.67;53.12
77086;BME280;66014;53.134;18.006;2024-03-17T12:50:25;101555.14;;;6.52;53.39
77086;BME280;66014;53.134;18.006;2024-03-17T12:52:55;101552.33;;;6.38;53.55
77086;BME280;66014;53.134;18.006;2024-03-17T12:55:23;101552.92;;;6.21;54.45
77086;BME280;66014;53.134;18.006;2024-03-17T12:58:10;101556.58;;;6.02;55.11
77086;BME280;66014;53.134;18.006;2024-03-17T13:01:02;101556.45;;;5.87;55.01
77086;BME280;66014;53.134;18.006;2024-03-17T13:03:34;101555.92;;;5.74;55.16
77086;BME280;66014;53.134;18.006;2024-03-17T13:06:02;101557.66;;;5.72;54.95
77086;BME280;66014;53.134;18.006;2024-03-17T13:08:29;101560.95;;;5.77;54.61
77086;BME280;66014;53.134;18.006;2024-03-17T13:10:58;101560.96;;;5.81;54.49
77086;BME280;66014;53.134;18.006;2024-03-17T13:13:25;101560.04;;;5.88;54.50
77086;BME280;66014;53.134;18.006;2024-03-17T13:15:52;101556.08;;;6.02;54.59
77086;BME280;66014;53.134;18.006;2024-03-17T13:18:19;101559.36;;;6.21;54.58
77086;BME280;66014;53.134;18.006;2024-03-17T13:20:47;101560.00;;;6.45;54.82
77086;BME280;66014;53.134;18.006;2024-03-17T13:23:17;101565.07;;;6.70;54.98
77086;BME280;66014;53.134;18.006;2024-03-17T13:25:44;101567.13;;;6.83;54.98
77086;BME280;66014;53.134;18.006;2024-03-17T13:28:12;101573.60;;;6.78;55.19
77086;BME280;66014;53.134;18.006;2024-03-17T13:30:38;101574.87;;;6.71;55.52
77086;BME280;66014;53.134;18.006;2024-03-17T13:33:06;101581.40;;;6.63;55.85
77086;BME280;66014;53.134;18.006;2024-03-17T13:35:39;101586.73;;;6.46;55.83
77086;BME280;66014;53.134;18.006;2024-03-17T13:38:08;101585.70;;;6.25;56.27